sensor_id;sensor_type;location;lat;lon;timestamp;P1;durP1;ratioP1;P2;durP2;ratioP2
16669;SDS011;8448;52.034;5.158;2024-03-02T00:00:39;4.27;;;1.70;;
16669;SDS011;8448;52.034;5.158;2024-03-02T00:03:06;3.03;;;1.70;;
16669;SDS011;8448;52.034;5.158;2024-03-02T00:05:36;2.87;;;1.73;;
16669;SDS011;8448;52.034;5.158;2024-03-02T00:08:04;2.23;;;1.50;;
16669;SDS011;8448;52.034;5.158;2024-03-02T00:10:34;2.37;;;1.50;;
16669;SDS011;8448;52.034;5.158;2024-03-02T00:13:04;2.35;;;1.10;;
16669;SDS011;8448;52.034;5.158;2024-03-02T00:15:42;1.23;;;0.80;;
16669;SDS011;8448;52.034;5.158;2024-03-02T00:18:14;1.20;;;0.50;;
16669;SDS011;8448;52.034;5.158;2024-03-02T00:20:44;0.90;;;0.40;;
16669;SDS011;8448;52.034;5.158;2024-03-02T00:23:14;0.60;;;0.40;;
16669;SDS011;8448;52.034;5.158;2024-03-02T00:25:43;0.50;;;0.33;;
16669;SDS011;8448;52.034;5.158;2024-03-02T00:28:20;3.43;;;0.40;;
16669;SDS011;8448;52.034;5.158;2024-03-02T00:30:55;1.03;;;0.30;;
16669;SDS011;8448;52.034;5.158;2024-03-02T00:33:25;0.73;;;0.20;;
16669;SDS011;8448;52.034;5.158;2024-03-02T00:35:55;0.67;;;0.30;;
16669;SDS011;8448;52.034;5.158;2024-03-02T00:38:23;0.60;;;0.30;;
16669;SDS011;8448;52.034;5.158;2024-03-02T00:40:50;0.80;;;0.30;;
16669;SDS011;8448;52.034;5.158;2024-03-02T00:46:13;1.60;;;0.30;;
16669;SDS011;8448;52.034;5.158;2024-03-02T00:48:47;1.00;;;0.40;;
16669;SDS011;8448;52.034;5.158;2024-03-02T00:51:20;0.50;;;0.40;;
16669;SDS011;8448;52.034;5.158;2024-03-02T00:53:48;0.40;;;0.40;;
16669;SDS011;8448;52.034;5.158;2024-03-02T00:56:16;0.70;;;0.50;;
16669;SDS011;8448;52.034;5.158;2024-03-02T00:58:43;1.97;;;0.70;;
16669;SDS011;8448;52.034;5.158;2024-03-02T01:01:11;0.70;;;0.60;;
16669;SDS011;8448;52.034;5.158;2024-03-02T01:03:39;2.50;;;0.70;;
16669;SDS011;8448;52.034;5.158;2024-03-02T01:06:07;0.63;;;0.50;;
16669;SDS011;8448;52.034;5.158;2024-03-02T01:08:36;0.60;;;0.50;;
16669;SDS011;8448;52.034;5.158;2024-03-02T01:11:04;0.73;;;0.70;;
16669;SDS011;8448;52.034;5.158;2024-03-02T01:13:31;1.40;;;0.60;;
16669;SDS011;8448;52.034;5.158;2024-03-02T01:15:59;0.87;;;0.57;;
16669;SDS011;8448;52.034;5.158;2024-03-02T01:18:27;0.50;;;0.50;;
16669;SDS011;8448;52.034;5.158;2024-03-02T01:20:54;0.70;;;0.60;;
16669;SDS011;8448;52.034;5.158;2024-03-02T01:23:22;0.83;;;0.50;;
16669;SDS011;8448;52.034;5.158;2024-03-02T01:25:51;1.57;;;0.60;;
16669;SDS011;8448;52.034;5.158;2024-03-02T01:28:18;1.10;;;0.60;;
16669;SDS011;8448;52.034;5.158;2024-03-02T01:30:46;1.13;;;0.50;;
16669;SDS011;8448;52.034;5.158;2024-03-02T01:33:14;0.90;;;0.70;;
16669;SDS011;8448;52.034;5.158;2024-03-02T01:35:42;1.27;;;0.60;;
16669;SDS011;8448;52.034;5.158;2024-03-02T01:38:10;3.77;;;0.80;;
16669;SDS011;8448;52.034;5.158;2024-03-02T01:40:37;0.70;;;0.60;;
16669;SDS011;8448;52.034;5.158;2024-03-02T01:43:06;0.83;;;0.50;;
16669;SDS011;8448;52.034;5.158;2024-03-02T01:45:34;1.73;;;0.73;;
16669;SDS011;8448;52.034;5.158;2024-03-02T01:48:02;0.70;;;0.70;;
16669;SDS011;8448;52.034;5.158;2024-03-02T01:50:31;1.67;;;0.53;;
16669;SDS011;8448;52.034;5.158;2024-03-02T01:52:59;0.57;;;0.57;;
16669;SDS011;8448;52.034;5.158;2024-03-02T01:55:27;0.60;;;0.50;;
16669;SDS011;8448;52.034;5.158;2024-03-02T01:57:55;0.70;;;0.50;;
16669;SDS011;8448;52.034;5.158;2024-03-02T02:00:24;1.23;;;0.70;;
16669;SDS011;8448;52.034;5.158;2024-03-02T02:02:51;0.50;;;0.50;;
16669;SDS011;8448;52.034;5.158;2024-03-02T02:05:19;1.60;;;0.60;;
16669;SDS011;8448;52.034;5.158;2024-03-02T02:07:47;1.13;;;0.50;;
16669;SDS011;8448;52.034;5.158;2024-03-02T02:10:14;0.97;;;0.60;;
16669;SDS011;8448;52.034;5.158;2024-03-02T02:12:42;1.57;;;0.80;;
16669;SDS011;8448;52.034;5.158;2024-03-02T02:15:23;0.50;;;0.50;;
16669;SDS011;8448;52.034;5.158;2024-03-02T02:17:51;1.37;;;0.60;;
16669;SDS011;8448;52.034;5.158;2024-03-02T02:20:19;0.80;;;0.70;;
16669;SDS011;8448;52.034;5.158;2024-03-02T02:22:55;2.10;;;0.73;;
16669;SDS011;8448;52.034;5.158;2024-03-02T02:25:23;0.70;;;0.70;;
16669;SDS011;8448;52.034;5.158;2024-03-02T02:27:50;0.70;;;0.70;;
16669;SDS011;8448;52.034;5.158;2024-03-02T02:30:18;0.97;;;0.70;;
16669;SDS011;8448;52.034;5.158;2024-03-02T02:32:47;1.60;;;0.98;;
16669;SDS011;8448;52.034;5.158;2024-03-02T02:35:14;0.80;;;0.80;;
16669;SDS011;8448;52.034;5.158;2024-03-02T02:37:42;1.23;;;0.87;;
16669;SDS011;8448;52.034;5.158;2024-03-02T02:40:11;1.07;;;0.90;;
16669;SDS011;8448;52.034;5.158;2024-03-02T02:42:39;1.30;;;0.90;;
16669;SDS011;8448;52.034;5.158;2024-03-02T02:45:07;0.77;;;0.70;;
16669;SDS011;8448;52.034;5.158;2024-03-02T02:47:36;1.57;;;0.90;;
16669;SDS011;8448;52.034;5.158;2024-03-02T02:50:03;1.43;;;1.00;;
16669;SDS011;8448;52.034;5.158;2024-03-02T02:52:33;1.13;;;0.80;;
16669;SDS011;8448;52.034;5.158;2024-03-02T02:55:02;0.90;;;0.60;;
16669;SDS011;8448;52.034;5.158;2024-03-02T02:57:32;0.80;;;0.70;;
16669;SDS011;8448;52.034;5.158;2024-03-02T03:00:05;0.60;;;0.60;;
16669;SDS011;8448;52.034;5.158;2024-03-02T03:02:36;0.70;;;0.60;;
16669;SDS011;8448;52.034;5.158;2024-03-02T03:05:04;0.90;;;0.70;;
16669;SDS011;8448;52.034;5.158;2024-03-02T03:07:32;1.10;;;0.70;;
16669;SDS011;8448;52.034;5.158;2024-03-02T03:10:01;0.50;;;0.50;;
16669;SDS011;8448;52.034;5.158;2024-03-02T03:12:29;0.50;;;0.50;;
16669;SDS011;8448;52.034;5.158;2024-03-02T03:14:58;0.80;;;0.53;;
16669;SDS011;8448;52.034;5.158;2024-03-02T03:17:26;0.50;;;0.50;;
16669;SDS011;8448;52.034;5.158;2024-03-02T03:19:53;0.87;;;0.60;;
16669;SDS011;8448;52.034;5.158;2024-03-02T03:22:21;1.03;;;0.63;;
16669;SDS011;8448;52.034;5.158;2024-03-02T03:24:48;0.60;;;0.60;;
16669;SDS011;8448;52.034;5.158;2024-03-02T03:27:16;1.60;;;0.43;;
16669;SDS011;8448;52.034;5.158;2024-03-02T03:29:46;0.60;;;0.60;;
16669;SDS011;8448;52.034;5.158;2024-03-02T03:32:13;1.00;;;0.70;;
16669;SDS011;8448;52.034;5.158;2024-03-02T03:34:41;0.70;;;0.53;;
16669;SDS011;8448;52.034;5.158;2024-03-02T03:37:09;1.60;;;0.60;;
16669;SDS011;8448;52.034;5.158;2024-03-02T03:39:36;0.50;;;0.40;;
16669;SDS011;8448;52.034;5.158;2024-03-02T03:42:04;1.10;;;0.60;;
16669;SDS011;8448;52.034;5.158;2024-03-02T03:44:32;1.57;;;0.60;;
16669;SDS011;8448;52.034;5.158;2024-03-02T03:47:00;1.10;;;0.60;;
16669;SDS011;8448;52.034;5.158;2024-03-02T03:49:28;2.20;;;0.57;;
16669;SDS011;8448;52.034;5.158;2024-03-02T03:51:55;3.63;;;0.80;;
16669;SDS011;8448;52.034;5.158;2024-03-02T03:54:23;0.77;;;0.50;;
16669;SDS011;8448;52.034;5.158;2024-03-02T03:56:50;0.70;;;0.50;;
16669;SDS011;8448;52.034;5.158;2024-03-02T03:59:17;0.85;;;0.63;;
16669;SDS011;8448;52.034;5.158;2024-03-02T04:01:45;0.70;;;0.50;;
16669;SDS011;8448;52.034;5.158;2024-03-02T04:04:14;1.57;;;0.70;;
16669;SDS011;8448;52.034;5.158;2024-03-02T04:06:42;1.23;;;0.60;;
16669;SDS011;8448;52.034;5.158;2024-03-02T04:09:09;0.67;;;0.40;;
16669;SDS011;8448;52.034;5.158;2024-03-02T04:11:37;0.80;;;0.60;;
16669;SDS011;8448;52.034;5.158;2024-03-02T04:14:04;0.57;;;0.50;;
16669;SDS011;8448;52.034;5.158;2024-03-02T04:16:31;0.70;;;0.50;;
16669;SDS011;8448;52.034;5.158;2024-03-02T04:18:59;0.93;;;0.57;;
16669;SDS011;8448;52.034;5.158;2024-03-02T04:21:28;0.83;;;0.63;;
16669;SDS011;8448;52.034;5.158;2024-03-02T04:23:55;1.63;;;0.63;;
16669;SDS011;8448;52.034;5.158;2024-03-02T04:26:24;0.87;;;0.73;;
16669;SDS011;8448;52.034;5.158;2024-03-02T04:28:52;1.13;;;0.60;;
16669;SDS011;8448;52.034;5.158;2024-03-02T04:31:19;1.27;;;0.73;;
16669;SDS011;8448;52.034;5.158;2024-03-02T04:33:47;2.33;;;0.80;;
16669;SDS011;8448;52.034;5.158;2024-03-02T04:36:14;1.50;;;0.70;;
16669;SDS011;8448;52.034;5.158;2024-03-02T04:38:43;1.17;;;0.67;;
16669;SDS011;8448;52.034;5.158;2024-03-02T04:41:10;1.50;;;0.70;;
16669;SDS011;8448;52.034;5.158;2024-03-02T04:43:37;2.53;;;0.90;;
16669;SDS011;8448;52.034;5.158;2024-03-02T04:46:06;1.57;;;0.67;;
16669;SDS011;8448;52.034;5.158;2024-03-02T04:48:34;1.43;;;0.70;;
16669;SDS011;8448;52.034;5.158;2024-03-02T04:51:01;0.90;;;0.70;;
16669;SDS011;8448;52.034;5.158;2024-03-02T04:53:29;1.10;;;0.87;;
16669;SDS011;8448;52.034;5.158;2024-03-02T04:55:58;1.93;;;0.70;;
16669;SDS011;8448;52.034;5.158;2024-03-02T04:58:51;1.17;;;0.80;;
16669;SDS011;8448;52.034;5.158;2024-03-02T05:01:19;4.00;;;0.90;;
16669;SDS011;8448;52.034;5.158;2024-03-02T05:03:46;2.47;;;0.67;;
16669;SDS011;8448;52.034;5.158;2024-03-02T05:06:13;1.23;;;0.83;;
16669;SDS011;8448;52.034;5.158;2024-03-02T05:08:41;2.23;;;0.83;;
16669;SDS011;8448;52.034;5.158;2024-03-02T05:11:11;1.20;;;0.70;;
16669;SDS011;8448;52.034;5.158;2024-03-02T05:13:56;1.77;;;0.67;;
16669;SDS011;8448;52.034;5.158;2024-03-02T05:16:23;1.53;;;0.60;;
16669;SDS011;8448;52.034;5.158;2024-03-02T05:18:51;2.38;;;0.75;;
16669;SDS011;8448;52.034;5.158;2024-03-02T05:21:18;1.33;;;0.60;;
16669;SDS011;8448;52.034;5.158;2024-03-02T05:23:45;2.00;;;0.80;;
16669;SDS011;8448;52.034;5.158;2024-03-02T05:26:14;0.70;;;0.70;;
16669;SDS011;8448;52.034;5.158;2024-03-02T05:28:41;3.03;;;0.50;;
16669;SDS011;8448;52.034;5.158;2024-03-02T05:31:09;1.70;;;0.67;;
16669;SDS011;8448;52.034;5.158;2024-03-02T05:33:37;2.67;;;0.57;;
16669;SDS011;8448;52.034;5.158;2024-03-02T05:36:04;1.20;;;0.60;;
16669;SDS011;8448;52.034;5.158;2024-03-02T05:38:32;3.10;;;0.70;;
16669;SDS011;8448;52.034;5.158;2024-03-02T05:41:00;2.50;;;0.60;;
16669;SDS011;8448;52.034;5.158;2024-03-02T05:43:29;0.90;;;0.47;;
16669;SDS011;8448;52.034;5.158;2024-03-02T05:45:56;1.43;;;0.57;;
16669;SDS011;8448;52.034;5.158;2024-03-02T05:48:24;4.60;;;0.70;;
16669;SDS011;8448;52.034;5.158;2024-03-02T05:50:51;1.90;;;0.60;;
16669;SDS011;8448;52.034;5.158;2024-03-02T05:53:18;1.37;;;0.60;;
16669;SDS011;8448;52.034;5.158;2024-03-02T05:55:46;2.63;;;0.70;;
16669;SDS011;8448;52.034;5.158;2024-03-02T05:58:18;3.50;;;0.80;;
16669;SDS011;8448;52.034;5.158;2024-03-02T06:00:59;4.57;;;1.50;;
16669;SDS011;8448;52.034;5.158;2024-03-02T06:03:26;2.20;;;1.00;;
16669;SDS011;8448;52.034;5.158;2024-03-02T06:05:54;1.40;;;0.60;;
16669;SDS011;8448;52.034;5.158;2024-03-02T06:08:21;1.73;;;0.60;;
16669;SDS011;8448;52.034;5.158;2024-03-02T06:10:49;1.70;;;0.70;;
16669;SDS011;8448;52.034;5.158;2024-03-02T06:13:16;1.23;;;0.60;;
16669;SDS011;8448;52.034;5.158;2024-03-02T06:15:43;0.47;;;0.40;;
16669;SDS011;8448;52.034;5.158;2024-03-02T06:18:12;1.83;;;0.50;;
16669;SDS011;8448;52.034;5.158;2024-03-02T06:20:40;0.60;;;0.50;;
16669;SDS011;8448;52.034;5.158;2024-03-02T06:23:07;0.80;;;0.60;;
16669;SDS011;8448;52.034;5.158;2024-03-02T06:25:35;1.00;;;0.50;;
16669;SDS011;8448;52.034;5.158;2024-03-02T06:28:02;2.50;;;0.80;;
16669;SDS011;8448;52.034;5.158;2024-03-02T06:30:30;2.37;;;0.87;;
16669;SDS011;8448;52.034;5.158;2024-03-02T06:32:57;2.43;;;0.63;;
16669;SDS011;8448;52.034;5.158;2024-03-02T06:35:26;2.90;;;1.00;;
16669;SDS011;8448;52.034;5.158;2024-03-02T06:37:53;1.30;;;0.60;;
16669;SDS011;8448;52.034;5.158;2024-03-02T06:40:21;2.00;;;0.80;;
16669;SDS011;8448;52.034;5.158;2024-03-02T06:42:48;0.47;;;0.40;;
16669;SDS011;8448;52.034;5.158;2024-03-02T06:45:16;1.73;;;0.80;;
16669;SDS011;8448;52.034;5.158;2024-03-02T06:47:43;2.13;;;0.70;;
16669;SDS011;8448;52.034;5.158;2024-03-02T06:50:11;1.23;;;0.70;;
16669;SDS011;8448;52.034;5.158;2024-03-02T06:52:42;2.50;;;0.70;;
16669;SDS011;8448;52.034;5.158;2024-03-02T06:55:09;2.07;;;0.70;;
16669;SDS011;8448;52.034;5.158;2024-03-02T06:57:38;1.63;;;0.80;;
16669;SDS011;8448;52.034;5.158;2024-03-02T07:00:06;1.17;;;0.53;;
16669;SDS011;8448;52.034;5.158;2024-03-02T07:02:35;3.00;;;0.67;;
16669;SDS011;8448;52.034;5.158;2024-03-02T07:05:03;1.33;;;0.77;;
16669;SDS011;8448;52.034;5.158;2024-03-02T07:07:33;1.03;;;0.60;;
16669;SDS011;8448;52.034;5.158;2024-03-02T07:10:06;2.50;;;0.90;;
16669;SDS011;8448;52.034;5.158;2024-03-02T07:12:34;1.73;;;0.60;;
16669;SDS011;8448;52.034;5.158;2024-03-02T07:15:03;1.70;;;0.60;;
16669;SDS011;8448;52.034;5.158;2024-03-02T07:17:56;1.67;;;0.67;;
16669;SDS011;8448;52.034;5.158;2024-03-02T07:20:24;2.70;;;0.73;;
16669;SDS011;8448;52.034;5.158;2024-03-02T07:22:53;1.73;;;0.60;;
16669;SDS011;8448;52.034;5.158;2024-03-02T07:25:22;1.67;;;0.50;;
16669;SDS011;8448;52.034;5.158;2024-03-02T07:27:50;3.87;;;0.60;;
16669;SDS011;8448;52.034;5.158;2024-03-02T07:30:18;1.80;;;0.70;;
16669;SDS011;8448;52.034;5.158;2024-03-02T07:32:46;1.03;;;0.60;;
16669;SDS011;8448;52.034;5.158;2024-03-02T07:35:16;1.40;;;0.63;;
16669;SDS011;8448;52.034;5.158;2024-03-02T07:37:43;1.77;;;0.80;;
16669;SDS011;8448;52.034;5.158;2024-03-02T07:40:12;3.23;;;0.80;;
16669;SDS011;8448;52.034;5.158;2024-03-02T07:42:42;2.10;;;0.63;;
16669;SDS011;8448;52.034;5.158;2024-03-02T07:45:10;2.20;;;0.67;;
16669;SDS011;8448;52.034;5.158;2024-03-02T07:47:38;3.17;;;0.70;;
16669;SDS011;8448;52.034;5.158;2024-03-02T07:50:06;2.90;;;0.77;;
16669;SDS011;8448;52.034;5.158;2024-03-02T07:52:34;2.83;;;0.60;;
16669;SDS011;8448;52.034;5.158;2024-03-02T07:55:01;2.20;;;0.70;;
16669;SDS011;8448;52.034;5.158;2024-03-02T07:57:30;1.30;;;0.63;;
16669;SDS011;8448;52.034;5.158;2024-03-02T07:59:59;2.20;;;0.80;;
16669;SDS011;8448;52.034;5.158;2024-03-02T08:02:37;3.50;;;0.70;;
16669;SDS011;8448;52.034;5.158;2024-03-02T08:05:05;1.70;;;0.60;;
16669;SDS011;8448;52.034;5.158;2024-03-02T08:07:33;3.97;;;0.70;;
16669;SDS011;8448;52.034;5.158;2024-03-02T08:10:00;2.77;;;0.80;;
16669;SDS011;8448;52.034;5.158;2024-03-02T08:12:28;1.93;;;0.70;;
16669;SDS011;8448;52.034;5.158;2024-03-02T08:14:55;2.13;;;0.70;;
16669;SDS011;8448;52.034;5.158;2024-03-02T08:17:24;3.87;;;0.77;;
16669;SDS011;8448;52.034;5.158;2024-03-02T08:19:51;4.07;;;0.87;;
16669;SDS011;8448;52.034;5.158;2024-03-02T08:22:19;2.67;;;0.60;;
16669;SDS011;8448;52.034;5.158;2024-03-02T08:24:47;3.70;;;0.80;;
16669;SDS011;8448;52.034;5.158;2024-03-02T08:27:14;3.83;;;0.53;;
16669;SDS011;8448;52.034;5.158;2024-03-02T08:29:42;1.00;;;0.60;;
16669;SDS011;8448;52.034;5.158;2024-03-02T08:32:09;4.80;;;0.80;;
16669;SDS011;8448;52.034;5.158;2024-03-02T08:34:38;1.63;;;0.70;;
16669;SDS011;8448;52.034;5.158;2024-03-02T08:37:06;2.07;;;0.90;;
16669;SDS011;8448;52.034;5.158;2024-03-02T08:39:33;1.90;;;0.60;;
16669;SDS011;8448;52.034;5.158;2024-03-02T08:42:01;2.27;;;0.77;;
16669;SDS011;8448;52.034;5.158;2024-03-02T08:44:29;1.63;;;0.60;;
16669;SDS011;8448;52.034;5.158;2024-03-02T08:46:58;2.67;;;0.60;;
16669;SDS011;8448;52.034;5.158;2024-03-02T08:49:26;3.33;;;1.00;;
16669;SDS011;8448;52.034;5.158;2024-03-02T08:51:58;2.80;;;0.80;;
16669;SDS011;8448;52.034;5.158;2024-03-02T08:54:25;2.23;;;0.70;;
16669;SDS011;8448;52.034;5.158;2024-03-02T08:56:53;1.47;;;0.50;;
16669;SDS011;8448;52.034;5.158;2024-03-02T08:59:20;1.63;;;0.67;;
16669;SDS011;8448;52.034;5.158;2024-03-02T09:01:50;0.87;;;0.60;;
16669;SDS011;8448;52.034;5.158;2024-03-02T09:04:17;3.87;;;0.80;;
16669;SDS011;8448;52.034;5.158;2024-03-02T09:06:46;2.73;;;1.00;;
16669;SDS011;8448;52.034;5.158;2024-03-02T09:09:15;3.27;;;0.70;;
16669;SDS011;8448;52.034;5.158;2024-03-02T09:11:42;3.43;;;0.90;;
16669;SDS011;8448;52.034;5.158;2024-03-02T09:14:10;2.13;;;0.60;;
16669;SDS011;8448;52.034;5.158;2024-03-02T09:16:37;6.03;;;0.90;;
16669;SDS011;8448;52.034;5.158;2024-03-02T09:19:05;4.50;;;0.80;;
16669;SDS011;8448;52.034;5.158;2024-03-02T09:21:32;2.67;;;0.83;;
16669;SDS011;8448;52.034;5.158;2024-03-02T09:24:00;6.13;;;1.20;;
16669;SDS011;8448;52.034;5.158;2024-03-02T09:26:30;3.27;;;0.80;;
16669;SDS011;8448;52.034;5.158;2024-03-02T09:28:57;4.70;;;1.00;;
16669;SDS011;8448;52.034;5.158;2024-03-02T09:31:25;4.73;;;1.00;;
16669;SDS011;8448;52.034;5.158;2024-03-02T09:33:52;3.77;;;0.83;;
16669;SDS011;8448;52.034;5.158;2024-03-02T09:36:21;2.87;;;0.97;;
16669;SDS011;8448;52.034;5.158;2024-03-02T09:38:49;3.50;;;0.80;;
16669;SDS011;8448;52.034;5.158;2024-03-02T09:41:16;5.20;;;1.10;;
16669;SDS011;8448;52.034;5.158;2024-03-02T09:43:45;2.70;;;0.90;;
16669;SDS011;8448;52.034;5.158;2024-03-02T09:46:13;1.27;;;0.77;;
16669;SDS011;8448;52.034;5.158;2024-03-02T09:48:43;3.80;;;1.00;;
16669;SDS011;8448;52.034;5.158;2024-03-02T09:51:11;4.40;;;1.13;;
16669;SDS011;8448;52.034;5.158;2024-03-02T09:53:39;4.47;;;1.10;;
16669;SDS011;8448;52.034;5.158;2024-03-02T09:56:07;2.50;;;0.80;;
16669;SDS011;8448;52.034;5.158;2024-03-02T09:58:34;3.27;;;1.10;;
16669;SDS011;8448;52.034;5.158;2024-03-02T10:01:05;3.70;;;0.90;;
16669;SDS011;8448;52.034;5.158;2024-03-02T10:03:33;2.43;;;0.73;;
16669;SDS011;8448;52.034;5.158;2024-03-02T10:08:46;2.63;;;0.90;;
16669;SDS011;8448;52.034;5.158;2024-03-02T10:11:25;3.63;;;1.00;;
16669;SDS011;8448;52.034;5.158;2024-03-02T10:14:07;2.97;;;0.90;;
16669;SDS011;8448;52.034;5.158;2024-03-02T10:16:37;3.00;;;0.93;;
16669;SDS011;8448;52.034;5.158;2024-03-02T10:19:16;10.97;;;1.47;;
16669;SDS011;8448;52.034;5.158;2024-03-02T10:21:44;5.27;;;1.13;;
16669;SDS011;8448;52.034;5.158;2024-03-02T10:24:12;3.40;;;1.07;;
16669;SDS011;8448;52.034;5.158;2024-03-02T10:26:40;4.73;;;1.00;;
16669;SDS011;8448;52.034;5.158;2024-03-02T10:29:08;6.00;;;1.10;;
16669;SDS011;8448;52.034;5.158;2024-03-02T10:31:37;2.33;;;0.70;;
16669;SDS011;8448;52.034;5.158;2024-03-02T10:34:05;2.37;;;0.90;;
16669;SDS011;8448;52.034;5.158;2024-03-02T10:36:33;2.43;;;0.80;;
16669;SDS011;8448;52.034;5.158;2024-03-02T10:39:01;1.70;;;0.70;;
16669;SDS011;8448;52.034;5.158;2024-03-02T10:41:31;2.40;;;0.70;;
16669;SDS011;8448;52.034;5.158;2024-03-02T10:44:01;3.67;;;0.90;;
16669;SDS011;8448;52.034;5.158;2024-03-02T10:46:29;3.27;;;0.90;;
16669;SDS011;8448;52.034;5.158;2024-03-02T10:49:00;1.90;;;0.80;;
16669;SDS011;8448;52.034;5.158;2024-03-02T10:51:29;3.20;;;0.83;;
16669;SDS011;8448;52.034;5.158;2024-03-02T10:53:58;2.60;;;0.70;;
16669;SDS011;8448;52.034;5.158;2024-03-02T10:56:28;2.37;;;0.80;;
16669;SDS011;8448;52.034;5.158;2024-03-02T10:58:59;2.85;;;1.00;;
16669;SDS011;8448;52.034;5.158;2024-03-02T11:01:29;2.58;;;1.00;;
16669;SDS011;8448;52.034;5.158;2024-03-02T11:04:00;2.22;;;0.70;;
16669;SDS011;8448;52.034;5.158;2024-03-02T11:06:29;1.38;;;0.70;;
16669;SDS011;8448;52.034;5.158;2024-03-02T11:09:00;2.10;;;0.63;;
16669;SDS011;8448;52.034;5.158;2024-03-02T11:11:30;2.42;;;0.80;;
16669;SDS011;8448;52.034;5.158;2024-03-02T11:14:01;3.15;;;0.88;;
16669;SDS011;8448;52.034;5.158;2024-03-02T11:16:33;2.40;;;0.80;;
16669;SDS011;8448;52.034;5.158;2024-03-02T11:19:04;4.22;;;0.90;;
16669;SDS011;8448;52.034;5.158;2024-03-02T11:21:33;4.00;;;0.85;;
16669;SDS011;8448;52.034;5.158;2024-03-02T11:24:04;2.00;;;0.82;;
16669;SDS011;8448;52.034;5.158;2024-03-02T11:26:58;1.65;;;0.70;;
16669;SDS011;8448;52.034;5.158;2024-03-02T11:29:44;3.38;;;1.00;;
16669;SDS011;8448;52.034;5.158;2024-03-02T11:32:16;2.72;;;0.90;;
16669;SDS011;8448;52.034;5.158;2024-03-02T11:34:48;2.15;;;0.70;;
16669;SDS011;8448;52.034;5.158;2024-03-02T11:37:16;1.80;;;0.80;;
16669;SDS011;8448;52.034;5.158;2024-03-02T11:39:45;2.00;;;0.80;;
16669;SDS011;8448;52.034;5.158;2024-03-02T11:42:13;2.22;;;0.95;;
16669;SDS011;8448;52.034;5.158;2024-03-02T11:44:42;2.20;;;0.80;;
16669;SDS011;8448;52.034;5.158;2024-03-02T11:47:12;1.75;;;0.85;;
16669;SDS011;8448;52.034;5.158;2024-03-02T11:49:42;2.42;;;0.80;;
16669;SDS011;8448;52.034;5.158;2024-03-02T11:52:12;1.63;;;0.70;;
16669;SDS011;8448;52.034;5.158;2024-03-02T11:54:41;2.45;;;0.80;;
16669;SDS011;8448;52.034;5.158;2024-03-02T11:57:12;2.45;;;0.70;;
16669;SDS011;8448;52.034;5.158;2024-03-02T11:59:41;4.00;;;0.90;;
16669;SDS011;8448;52.034;5.158;2024-03-02T12:02:14;3.53;;;1.02;;
16669;SDS011;8448;52.034;5.158;2024-03-02T12:04:43;2.78;;;0.90;;
16669;SDS011;8448;52.034;5.158;2024-03-02T12:07:13;1.55;;;0.90;;
16669;SDS011;8448;52.034;5.158;2024-03-02T12:09:45;3.45;;;0.98;;
16669;SDS011;8448;52.034;5.158;2024-03-02T12:12:13;3.03;;;0.90;;
16669;SDS011;8448;52.034;5.158;2024-03-02T12:14:50;2.33;;;0.80;;
16669;SDS011;8448;52.034;5.158;2024-03-02T12:17:20;2.05;;;0.80;;
16669;SDS011;8448;52.034;5.158;2024-03-02T12:19:51;3.38;;;0.90;;
16669;SDS011;8448;52.034;5.158;2024-03-02T12:22:20;1.90;;;0.80;;
16669;SDS011;8448;52.034;5.158;2024-03-02T12:24:48;2.38;;;0.90;;
16669;SDS011;8448;52.034;5.158;2024-03-02T12:27:16;4.07;;;1.02;;
16669;SDS011;8448;52.034;5.158;2024-03-02T12:29:46;2.00;;;0.93;;
16669;SDS011;8448;52.034;5.158;2024-03-02T12:32:15;2.05;;;0.90;;
16669;SDS011;8448;52.034;5.158;2024-03-02T12:34:42;2.58;;;0.95;;
16669;SDS011;8448;52.034;5.158;2024-03-02T12:37:12;2.05;;;1.00;;
16669;SDS011;8448;52.034;5.158;2024-03-02T12:39:43;4.80;;;0.93;;
16669;SDS011;8448;52.034;5.158;2024-03-02T12:42:12;2.30;;;1.00;;
16669;SDS011;8448;52.034;5.158;2024-03-02T12:44:39;3.17;;;0.90;;
16669;SDS011;8448;52.034;5.158;2024-03-02T12:47:07;3.65;;;0.95;;
16669;SDS011;8448;52.034;5.158;2024-03-02T12:49:34;2.67;;;1.00;;
16669;SDS011;8448;52.034;5.158;2024-03-02T12:52:02;1.48;;;0.70;;
16669;SDS011;8448;52.034;5.158;2024-03-02T12:54:30;2.35;;;1.13;;
16669;SDS011;8448;52.034;5.158;2024-03-02T12:56:59;2.35;;;0.75;;
16669;SDS011;8448;52.034;5.158;2024-03-02T12:59:28;2.72;;;0.90;;
16669;SDS011;8448;52.034;5.158;2024-03-02T13:01:56;2.00;;;0.90;;
16669;SDS011;8448;52.034;5.158;2024-03-02T13:04:24;3.28;;;0.80;;
16669;SDS011;8448;52.034;5.158;2024-03-02T13:06:53;2.35;;;0.90;;
16669;SDS011;8448;52.034;5.158;2024-03-02T13:09:22;2.33;;;0.70;;
16669;SDS011;8448;52.034;5.158;2024-03-02T13:11:50;1.95;;;0.85;;
16669;SDS011;8448;52.034;5.158;2024-03-02T13:14:21;3.88;;;0.90;;
16669;SDS011;8448;52.034;5.158;2024-03-02T13:16:50;3.42;;;1.08;;
16669;SDS011;8448;52.034;5.158;2024-03-02T13:19:17;1.90;;;0.82;;
16669;SDS011;8448;52.034;5.158;2024-03-02T13:21:45;1.70;;;0.70;;
16669;SDS011;8448;52.034;5.158;2024-03-02T13:24:12;2.28;;;0.70;;
16669;SDS011;8448;52.034;5.158;2024-03-02T13:26:40;4.38;;;1.10;;
16669;SDS011;8448;52.034;5.158;2024-03-02T13:29:08;2.58;;;1.05;;
16669;SDS011;8448;52.034;5.158;2024-03-02T13:31:37;2.65;;;0.90;;
16669;SDS011;8448;52.034;5.158;2024-03-02T13:34:05;3.28;;;0.90;;
16669;SDS011;8448;52.034;5.158;2024-03-02T13:36:32;2.95;;;0.90;;
16669;SDS011;8448;52.034;5.158;2024-03-02T13:39:00;2.42;;;0.90;;
16669;SDS011;8448;52.034;5.158;2024-03-02T13:41:28;3.20;;;0.98;;
16669;SDS011;8448;52.034;5.158;2024-03-02T13:43:55;3.03;;;0.90;;
16669;SDS011;8448;52.034;5.158;2024-03-02T13:46:26;3.10;;;0.98;;
16669;SDS011;8448;52.034;5.158;2024-03-02T13:48:55;3.47;;;0.95;;
16669;SDS011;8448;52.034;5.158;2024-03-02T13:51:24;4.72;;;1.20;;
16669;SDS011;8448;52.034;5.158;2024-03-02T13:53:52;2.53;;;0.95;;
16669;SDS011;8448;52.034;5.158;2024-03-02T13:56:20;1.75;;;0.80;;
16669;SDS011;8448;52.034;5.158;2024-03-02T13:58:47;3.17;;;1.10;;
16669;SDS011;8448;52.034;5.158;2024-03-02T14:01:15;2.97;;;0.98;;
16669;SDS011;8448;52.034;5.158;2024-03-02T14:03:42;4.03;;;0.98;;
16669;SDS011;8448;52.034;5.158;2024-03-02T14:06:12;2.17;;;1.00;;
16669;SDS011;8448;52.034;5.158;2024-03-02T14:08:40;4.13;;;0.90;;
16669;SDS011;8448;52.034;5.158;2024-03-02T14:11:09;3.92;;;1.27;;
16669;SDS011;8448;52.034;5.158;2024-03-02T14:13:40;2.42;;;1.10;;
16669;SDS011;8448;52.034;5.158;2024-03-02T14:16:09;1.92;;;0.90;;
16669;SDS011;8448;52.034;5.158;2024-03-02T14:18:36;3.70;;;1.60;;
16669;SDS011;8448;52.034;5.158;2024-03-02T14:21:04;4.07;;;1.37;;
16669;SDS011;8448;52.034;5.158;2024-03-02T14:23:33;2.60;;;0.95;;
16669;SDS011;8448;52.034;5.158;2024-03-02T14:26:01;4.13;;;1.40;;
16669;SDS011;8448;52.034;5.158;2024-03-02T14:28:28;2.13;;;1.10;;
16669;SDS011;8448;52.034;5.158;2024-03-02T14:30:56;3.93;;;1.33;;
16669;SDS011;8448;52.034;5.158;2024-03-02T14:33:26;1.93;;;1.07;;
16669;SDS011;8448;52.034;5.158;2024-03-02T14:35:53;3.67;;;1.30;;
16669;SDS011;8448;52.034;5.158;2024-03-02T14:38:21;2.67;;;1.10;;
16669;SDS011;8448;52.034;5.158;2024-03-02T14:40:49;2.90;;;1.20;;
16669;SDS011;8448;52.034;5.158;2024-03-02T14:43:17;3.13;;;1.20;;
16669;SDS011;8448;52.034;5.158;2024-03-02T14:45:49;3.28;;;1.35;;
16669;SDS011;8448;52.034;5.158;2024-03-02T14:48:16;1.92;;;1.02;;
16669;SDS011;8448;52.034;5.158;2024-03-02T14:50:44;2.92;;;1.23;;
16669;SDS011;8448;52.034;5.158;2024-03-02T14:53:11;3.13;;;1.23;;
16669;SDS011;8448;52.034;5.158;2024-03-02T14:55:39;3.08;;;1.10;;
16669;SDS011;8448;52.034;5.158;2024-03-02T14:58:08;4.50;;;1.30;;
16669;SDS011;8448;52.034;5.158;2024-03-02T15:00:35;2.40;;;1.00;;
16669;SDS011;8448;52.034;5.158;2024-03-02T15:03:03;2.20;;;0.90;;
16669;SDS011;8448;52.034;5.158;2024-03-02T15:05:33;4.07;;;1.20;;
16669;SDS011;8448;52.034;5.158;2024-03-02T15:08:01;3.28;;;1.10;;
16669;SDS011;8448;52.034;5.158;2024-03-02T15:10:30;3.80;;;1.00;;
16669;SDS011;8448;52.034;5.158;2024-03-02T15:12:57;2.97;;;0.90;;
16669;SDS011;8448;52.034;5.158;2024-03-02T15:15:26;4.03;;;1.00;;